Sarcobatus Flat, Nevada Weather observations

Data are for observation ending at time listed.
 Day   Time    Ave.   Ave.  Ave.  Vector   Max.   Stn.    Total    Solar   Ave.  
  of    of     Air    Rel.  Wind   Wind    Wind   Baro.  Precip.   Rad.    Soil  
Year   Day     Temp.  Hum.  Speed  Dir.    Gust   Pres.                    Temp. 
2015   (PST)    F      %     mph   deg.    mph     mb.     in.     W/m2     F   
------------------------------------------------------------------------------
  85   17:10   76.5    14    4.4   273      8.1   882.9    0.00     181    999.0
  85   17:20   76.3    14    5.2   260      8.0   882.9    0.00     149    999.0
  85   17:30   75.9    14    4.7   259      6.9   882.9    0.00     116    999.0
  85   17:40   75.4    14    4.6   274      6.2   882.9    0.00      84    999.0
  85   17:50   74.7    15    5.0   259      5.8   883.0    0.00      54    999.0
  85   18:00   73.2    16    4.5   257      5.3   883.0    0.00      14    999.0
  85   18:10   70.8    18    4.4   235      5.3   883.1    0.00       6    999.0
  85   18:20   69.0    18    4.2   235      5.3   883.2    0.00       2    999.0
  85   18:30   67.4    19    3.9   244      4.7   883.3    0.00       0    999.0
  85   18:40   65.8    20    4.2   249      6.1   883.4    0.00       0    999.0
  85   18:50   65.0    21    5.2   246      7.6   883.5    0.00       0    999.0
  85   19:00   64.8    22    5.9   247      8.3   883.6    0.00       0    999.0
  85   19:10   65.4    22    7.3   244     10.3   883.7    0.00       0    999.0
  85   19:20   65.3    22    7.3   240      9.5   883.8    0.00       0    999.0
  85   19:30   65.2    22    6.4   241      9.5   883.9    0.00       0    999.0
  85   19:40   63.6    23    2.9    56      4.7   884.1    0.00       0    999.0
  85   19:50   64.6    23    3.3   307      8.6   884.2    0.00       0    999.0
  85   20:00   65.0    22    2.2    58      4.4   884.3    0.00       0    999.0
  85   20:10   63.7    23    0.6   122      2.5   884.4    0.00       0    999.0
  85   20:20   64.3    22    1.5   136      8.2   884.5    0.00       0    999.0
  85   20:30   63.9    23    5.5   172      7.9   884.6    0.00       0    999.0
  85   20:40   63.7    23    5.4   153      8.8   884.7    0.00       0    999.0
  85   20:50   59.6    26    5.2   125      7.1   884.7    0.00       0    999.0
  85   21:00   61.3    25    7.1   160     10.0   884.8    0.00       0    999.0
  85   21:10   60.7    26    6.8   139      8.6   884.9    0.00       0    999.0
  85   21:20   60.3    26    4.8   154      6.9   885.1    0.00       0    999.0
  85   21:30   60.5    26    3.4   220      5.2   885.1    0.00       0    999.0
  85   21:40   56.9    29    2.2   273      3.7   885.3    0.00       0    999.0
  85   21:50   53.3    32    3.0   273      4.7   885.3    0.00       0    999.0
  85   22:00   51.7    33    5.2   254      6.6   885.4    0.00       0    999.0
  85   22:10   52.7    32    2.9   238      6.1   885.5    0.00       0    999.0
  85   22:20   52.4    32    1.4    38      4.2   885.5    0.00       0    999.0
  85   22:30   50.6    34    3.4    15      4.7   885.6    0.00       0    999.0
  85   22:40   49.5    35    2.6   355      4.2   885.6    0.00       0    999.0
  85   22:50   47.9    38    4.1   325      4.9   885.6    0.00       0    999.0
  85   23:00   46.5    40    4.1   320      4.7   885.6    0.00       0    999.0
  85   23:10   46.4    40    4.5   323      5.4   885.6    0.00       0    999.0
  85   23:20   46.0    40    4.4   326      5.6   885.7    0.00       0    999.0
  85   23:30   45.8    41    4.3   321      5.2   885.6    0.00       0    999.0
  85   23:40   45.4    42    4.2   315      5.3   885.6    0.00       0    999.0
  85   23:50   45.0    43    4.1   312      5.2   885.6    0.00       0    999.0
  86    0:00   44.6    44    4.5   311      5.3   885.6    0.00       0    999.0
  86    0:10   44.0    44    4.0   328      4.7   885.7    0.00       0    999.0
  86    0:20   43.2    45    4.5   339      5.4   885.7    0.00       0    999.0
  86    0:30   42.7    46    3.8   333      4.3   885.7    0.00       0    999.0
  86    0:40   42.6    46    3.3   306      4.7   885.7    0.00       0    999.0
  86    0:50   42.6    47    4.4   313      5.3   885.7    0.00       0    999.0
  86    1:00   42.7    48    4.8   314      5.6   885.7    0.00       0    999.0
  86    1:10   43.4    47    4.5   327      5.3   885.6    0.00       0    999.0
  86    1:20   44.4    45    5.6   348      7.2   885.5    0.00       0    999.0
  86    1:30   43.7    46    5.5    19      6.6   885.5    0.00       0    999.0
  86    1:40   43.9    45    3.5    20      5.2   885.5    0.00       0    999.0
  86    1:50   42.7    48    5.7   300      7.3   885.4    0.00       0    999.0
  86    2:00   43.6    47    5.7   346      7.2   885.3    0.00       0    999.0
  86    2:10   43.0    47    5.3     7      7.2   885.1    0.00       0    999.0
  86    2:20   42.2    49    3.8   303      4.4   885.1    0.00       0    999.0
  86    2:30   41.9    50    5.0   301      6.3   885.0    0.00       0    999.0
  86    2:40   42.1    50    4.8   306      5.9   885.0    0.00       0    999.0
  86    2:50   42.4    50    4.2   306      5.4   885.0    0.00       0    999.0
  86    3:00   42.7    50    4.2   331      5.6   884.9    0.00       0    999.0
  86    3:10   40.6    51    3.4   111      6.9   885.0    0.00       0    999.0
  86    3:20   39.1    53    4.6   154      6.9   885.0    0.00       0    999.0
  86    3:30   40.2    51    2.5   186      3.7   884.9    0.00       0    999.0
  86    3:40   41.3    49    2.1   208      3.1   884.9    0.00       0    999.0
  86    3:50   39.5    52    1.2   228      2.0   884.9    0.00       0    999.0
  86    4:00   39.0    53    3.1    30      4.8   884.9    0.00       0    999.0
  86    4:10   39.6    51    3.7    64      5.1   885.0    0.00       0    999.0
  86    4:20   40.0    50    2.2    86      3.9   884.9    0.00       0    999.0
  86    4:30   39.1    52    0.8    89      1.5   885.0    0.00       0    999.0
  86    4:40   38.0    55    1.4   297      3.5   885.0    0.00       0    999.0
  86    4:50   39.1    54    1.9   291      2.9   885.0    0.00       0    999.0
  86    5:00   39.4    53    2.6   334      3.3   885.1    0.00       0    999.0
  86    5:10   37.9    54    3.2    25      4.5   885.2    0.00       0    999.0
  86    5:20   37.1    56    3.6    15      4.7   885.3    0.00       0    999.0
  86    5:30   38.5    54    3.7    68      4.5   885.4    0.00       0    999.0
  86    5:40   39.0    52    1.8   112      3.6   885.4    0.00       2    999.0
  86    5:50   37.7    56    3.7   227      5.0   885.4    0.00       7    999.0
  86    6:00   37.7    57    3.1   205      4.5   885.5    0.00      12    999.0
  86    6:10   38.3    55    0.9   145      2.7   885.7    0.00      43    999.0
  86    6:20   40.8    52    0.2   249      1.8   885.8    0.00      91    999.0
  86    6:30   41.7    49    0.7   143      2.2   885.9    0.00     121    999.0
  86    6:40   41.9    48    2.8   102      4.7   886.0    0.00     152    999.0
  86    6:50   43.4    47    3.9   118      5.2   885.9    0.00     183    999.0
  86    7:00   43.9    46    4.3   136      5.3   886.0    0.00     221    999.0
  86    7:10   44.3    45    2.4   150      4.0   885.9    0.00     258    999.0
  86    7:20   45.9    42    1.8   126      3.4   885.9    0.00     295    999.0
  86    7:30   46.9    41    2.5   149      3.7   885.9    0.00     327    999.0
  86    7:40   48.7    39    2.3   166      3.7   886.0    0.00     368    999.0
  86    7:50   51.9    35    0.7   150      2.3   886.0    0.00     403    999.0
  86    8:00   54.3    33    0.9   191      2.3   886.0    0.00     439    999.0
  86    8:10   56.3    31    0.8   177      2.7   886.1    0.00     473    999.0
  86    8:20   57.2    30    1.7   132      4.2   886.1    0.00     507    999.0
  86    8:30   57.8    30    1.9   118      3.7   886.1    0.00     540    999.0
  86    8:40   58.6    29    4.1   107      6.0   886.0    0.00     571    999.0
  86    8:50   60.0    28    3.9   118      6.2   885.9    0.00     599    999.0
  86    9:00   62.1    26    4.1   137      6.5   885.9    0.00     628    999.0
  86    9:10   64.2    24    3.4   149      6.9   885.9    0.00     660    999.0
  86    9:20   65.5    23    2.9   159      5.5   885.9    0.00     690    999.0
  86    9:30   66.8    22    2.0   148      4.2   885.8    0.00     717    999.0
  86    9:40   67.9    21    2.3   144      4.8   885.8    0.00     742    999.0
  86    9:50   69.0    20    2.8   136      6.4   885.6    0.00     765    999.0
  86   10:00   70.1    19    3.1   166      6.8   885.5    0.00     785    999.0
  86   10:10   70.8    18    3.0   160      6.9   885.4    0.00     805    999.0
  86   10:20   71.7    17    3.0   160      6.6   885.3    0.00     826    999.0
  86   10:30   71.9    17    4.7   154      8.0   885.1    0.00     841    999.0
  86   10:40   72.4    16    5.6   153     10.7   885.0    0.00     854    999.0
  86   10:50   73.2    16    4.9   146      8.6   884.9    0.00     865    999.0
  86   11:00   73.6    15    4.8   168      8.0   884.7    0.00     873    999.0
  86   11:10   74.8    15    6.0   208     11.2   884.6    0.00     886    999.0
  86   11:20   74.8    14    5.2   185     15.1   884.5    0.00     895    999.0
  86   11:30   75.3    14    5.8   146     10.4   884.3    0.00     903    999.0
  86   11:40   75.6    14    5.0   175     10.7   884.2    0.00     910    999.0
  86   11:50   75.6    14    5.9   188     10.7   884.1    0.00     915    999.0
  86   12:00   76.5    14    5.7   173     13.6   883.9    0.00     917    999.0
  86   12:10   76.9    14    5.4   173      8.7   883.8    0.00     912    999.0
  86   12:20   77.3    13    6.6   179     11.5   883.6    0.00     909    999.0
  86   12:30   77.6    13    7.0   189     13.2   883.5    0.00     907    999.0
  86   12:40   78.0    13    7.2   199     12.5   883.3    0.00     903    999.0
  86   12:50   78.1    13    4.4   175      9.3   883.1    0.00     895    999.0
  86   13:00   78.3    13    4.2   152      9.9   882.8    0.00     884    999.0
  86   13:10   79.4    13    4.7   203     16.1   882.6    0.00     871    999.0
  86   13:20   79.6    13    5.4   170     12.8   882.4    0.00     858    999.0
  86   13:30   78.7    12    5.3   146     14.7   882.3    0.00     837    999.0
  86   13:40   79.9    12    7.5   134     16.0   882.1    0.00     823    999.0
  86   13:50   80.2    12    9.2   154     15.4   881.9    0.00     803    999.0
  86   14:00   79.2    12    6.6   147     16.4   881.8    0.00     782    999.0
  86   14:10   79.7    12    7.3   188     16.1   881.7    0.00     759    999.0
  86   14:20   80.0    12    6.8   171     12.1   881.5    0.00     733    999.0
  86   14:30   79.7    12    5.4   106     11.0   881.3    0.00     709    999.0
  86   14:40   80.1    12    6.2   198     12.5   881.1    0.00     684    999.0
  86   14:50   80.4    12    6.0   221     16.0   881.0    0.00     656    999.0
  86   15:00   80.3    12    6.0   155     11.2   880.9    0.00     625    999.0
  86   15:10   80.6    12    6.8   169     13.5   880.8    0.00     594    999.0
  86   15:20   80.3    12    7.8   188     16.0   880.8    0.00     563    999.0
  86   15:30   81.1    11    5.2   203      9.7   880.8    0.00     530    999.0
  86   15:40   81.1    11    7.1   193     13.2   880.6    0.00     496    999.0
  86   15:50   80.4    12    6.7   152     10.2   880.6    0.00     461    999.0
  86   16:00   80.1    12    8.0   165     11.5   880.6    0.00     425    999.0
  86   16:10   80.0    12    9.2   166     16.1   880.5    0.00     389    999.0
  86   16:20   79.5    12    8.4   165     15.8   880.5    0.00     353    999.0
  86   16:30   79.6    12   11.4   152     17.0   880.4    0.00     317    999.0
  86   16:40   79.5    12   10.8   162     17.2   880.4    0.00     281    999.0
  86   16:50   79.1    12   11.2   169     14.5   880.4    0.00     245    999.0
  86   17:00   78.8    12    9.8   166     13.7   880.5    0.00     210    999.0

Return to Sarcobatus Flat, Nevada graphs page.


Western Regional Climate Center,wrcc@dri.edu